Bookmark and Share
Track history (hours):
 

Capo Vado

Last reported at 2014-Apr-20 11:33 UTC. Time now 2014-Apr-20 11:44 UTC.
Position N 44°18' E 008°29'.

Length 30 m.

Type: Tug. MMSI: 247228400.

NotesDate/timePositionNaut miles runAvg speedWind from/ knotsBaromVisibWave heightAir tempDewpointWater temp
2014-Apr-20 11:33N 44°18' E 008°29'0 0.1
2014-Apr-20 10:33N 44°19' E 008°29'2 2.3
2014-Apr-20 09:33N 44°17' E 008°28'0 0.3
2014-Apr-20 08:33N 44°16' E 008°28'2 2.4
2014-Apr-20 07:33N 44°18' E 008°29'0 0.0
2014-Apr-20 06:33N 44°18' E 008°29'0 0.0
2014-Apr-20 05:33N 44°18' E 008°29'0 0.0
2014-Apr-20 04:33N 44°18' E 008°29'0 0.0
2014-Apr-20 03:33N 44°18' E 008°29'0 0.0
2014-Apr-20 02:33N 44°18' E 008°29'0 0.0
2014-Apr-20 01:33N 44°18' E 008°29'0 0.0
2014-Apr-20 00:33N 44°18' E 008°29'0 0.0
2014-Apr-19 23:33N 44°18' E 008°29'0 0.0
2014-Apr-19 22:33N 44°18' E 008°29'0 0.0
2014-Apr-19 21:33N 44°18' E 008°29'0 0.0
2014-Apr-19 20:33N 44°18' E 008°29'0 0.0
2014-Apr-19 19:33N 44°18' E 008°29'0 0.0
2014-Apr-19 18:33N 44°18' E 008°29'0 0.0
2014-Apr-19 17:33N 44°18' E 008°29'0 0.0
2014-Apr-19 16:33N 44°18' E 008°29'0 0.0
2014-Apr-19 15:33N 44°18' E 008°29'0 0.0
2014-Apr-19 14:33N 44°18' E 008°29'0 0.0
2014-Apr-19 13:33N 44°18' E 008°29'0 0.4
2014-Apr-19 12:34N 44°19' E 008°30'0 0.4
2014-Apr-19 11:33N 44°19' E 008°30'1 0.8
2014-Apr-19 10:33N 44°18' E 008°29'0 0.0
2014-Apr-19 09:33N 44°18' E 008°29'2 2.4
2014-Apr-19 08:33N 44°16' E 008°28'1 0.7
2014-Apr-19 07:33N 44°16' E 008°27'3 3.2
2014-Apr-19 06:33N 44°19' E 008°29'0 0.4
2014-Apr-19 05:33N 44°19' E 008°30'1 0.8
2014-Apr-19 04:33N 44°19' E 008°31'1 1.1
2014-Apr-19 03:33N 44°18' E 008°29'0 0.0
2014-Apr-19 02:33N 44°18' E 008°29'0 0.0
2014-Apr-19 01:33N 44°18' E 008°29'0 0.0
2014-Apr-19 00:33N 44°18' E 008°29'0 0.0
2014-Apr-18 23:33N 44°18' E 008°29'0 0.0
2014-Apr-18 22:33N 44°18' E 008°29'0 0.0
2014-Apr-18 21:33N 44°18' E 008°29'0 0.0
2014-Apr-18 20:33N 44°18' E 008°29'0 0.0
2014-Apr-18 19:33N 44°18' E 008°29'0 0.0
2014-Apr-18 18:33N 44°18' E 008°29'0 0.0
2014-Apr-18 17:33N 44°18' E 008°29'0 0.0
2014-Apr-18 16:33N 44°18' E 008°29'0 0.0
2014-Apr-18 15:33N 44°18' E 008°29'0 0.0
2014-Apr-18 14:33N 44°18' E 008°29'0 0.0
2014-Apr-18 13:33N 44°18' E 008°29'0 0.0
2014-Apr-18 12:33N 44°18' E 008°29'0 0.0
2014-Apr-18 11:33N 44°18' E 008°29'0 0.0
2014-Apr-18 10:33N 44°18' E 008°29'0 0.0
2014-Apr-18 09:33N 44°18' E 008°29'0 0.0
2014-Apr-18 08:33N 44°18' E 008°29'0 0.0
2014-Apr-18 07:33N 44°18' E 008°29'1 0.6
2014-Apr-18 06:33N 44°19' E 008°30'3 2.8
2014-Apr-18 05:33N 44°17' E 008°28'3 3.0
2014-Apr-18 04:33N 44°19' E 008°30'1 0.8
2014-Apr-18 03:33N 44°18' E 008°29'0 0.0
2014-Apr-18 02:33N 44°18' E 008°29'0 0.0
2014-Apr-18 01:33N 44°18' E 008°29'0 0.0
2014-Apr-18 00:33N 44°18' E 008°29'0 0.0
2014-Apr-17 23:33N 44°18' E 008°29'0 0.0
2014-Apr-17 22:33N 44°18' E 008°29'0 0.0
2014-Apr-17 21:33N 44°18' E 008°29'0 0.0
2014-Apr-17 20:33N 44°18' E 008°29'0 0.0
2014-Apr-17 19:33N 44°18' E 008°29'0 0.0
2014-Apr-17 18:33N 44°18' E 008°29'0 0.0
2014-Apr-17 17:33N 44°18' E 008°29'0 0.0
2014-Apr-17 16:33N 44°18' E 008°29'0 0.0
2014-Apr-17 15:33N 44°18' E 008°29'0 0.0
2014-Apr-17 14:33N 44°18' E 008°29'0 0.0
2014-Apr-17 13:33N 44°18' E 008°29'0 0.0
2014-Apr-17 12:33N 44°18' E 008°29'0 0.0
2014-Apr-17 11:33N 44°18' E 008°29'0 0.0
2014-Apr-17 10:33N 44°18' E 008°29'1 0.7
2014-Apr-17 09:32N 44°19' E 008°30'2 2.0
2014-Apr-17 08:28N 44°17' E 008°29'1 1.1
2014-Apr-17 07:32N 44°17' E 008°28'2 1.7
2014-Apr-17 06:13N 44°18' E 008°29'0 0.0
2014-Apr-17 05:21N 44°18' E 008°29'1 0.9
2014-Apr-17 04:31N 44°19' E 008°30'1 0.7
2014-Apr-17 03:31N 44°18' E 008°29'0 0.0
2014-Apr-17 02:33N 44°18' E 008°29'0 0.0
2014-Apr-17 01:33N 44°18' E 008°29'0 0.0
2014-Apr-17 00:33N 44°18' E 008°29'0 0.0
2014-Apr-16 23:33N 44°18' E 008°29'0 0.0
2014-Apr-16 22:17N 44°18' E 008°29'0 0.0
2014-Apr-16 21:07N 44°18' E 008°29'0 0.0
2014-Apr-16 20:07N 44°18' E 008°29'0 0.0
2014-Apr-16 19:21N 44°18' E 008°29'0 0.0
2014-Apr-16 18:12N 44°18' E 008°29'0 0.0
2014-Apr-16 17:19N 44°18' E 008°29'0 0.0
2014-Apr-16 16:04N 44°18' E 008°29'0 0.0
2014-Apr-16 15:33N 44°18' E 008°29'0 0.0
2014-Apr-16 14:33N 44°18' E 008°29'0 0.0
2014-Apr-16 13:24N 44°18' E 008°29'0 0.0
2014-Apr-16 11:32N 44°18' E 008°29'0 0.0
2014-Apr-16 10:19N 44°18' E 008°29'0 0.0
2014-Apr-16 09:13N 44°18' E 008°29'0 0.0
2014-Apr-16 08:17N 44°18' E 008°29'0 0.0
2014-Apr-16 07:32N 44°18' E 008°29'0 0.0
2014-Apr-16 06:17N 44°18' E 008°29'0 0.0
2014-Apr-16 05:17N 44°18' E 008°29'0 0.0
2014-Apr-16 04:18N 44°18' E 008°29'0 0.0
2014-Apr-16 03:33N 44°18' E 008°29'0 0.0
2014-Apr-16 02:33N 44°18' E 008°29'0 0.0
2014-Apr-16 01:33N 44°18' E 008°29'0 0.0
2014-Apr-16 00:33N 44°18' E 008°29'0 0.0
2014-Apr-15 23:33N 44°18' E 008°29'0 0.0
2014-Apr-15 22:16N 44°18' E 008°29'0 0.0
2014-Apr-15 21:08N 44°18' E 008°29'0 0.0
2014-Apr-15 20:17N 44°18' E 008°29'0 0.0
2014-Apr-15 19:33N 44°18' E 008°29'0 0.0
2014-Apr-15 18:11N 44°18' E 008°29'0 0.0
2014-Apr-15 17:18N 44°18' E 008°29'0 0.0
2014-Apr-15 16:17N 44°18' E 008°29'0 0.0
2014-Apr-15 15:33N 44°18' E 008°29'0 0.0
2014-Apr-15 14:24N 44°18' E 008°29'0 0.0
2014-Apr-15 10:34N 44°18' E 008°29'3 1.5
2014-Apr-15 08:33N 44°16' E 008°27'0 0.1
2014-Apr-15 07:30N 44°16' E 008°27'0 0.0
2014-Apr-15 06:32N 44°16' E 008°27'1 0.6
2014-Apr-15 05:33N 44°16' E 008°27'3 0.9
2014-Apr-15 02:32N 44°18' E 008°29'0 0.0
2014-Apr-15 01:34N 44°18' E 008°29'0 0.0
2014-Apr-15 00:34N 44°18' E 008°29'0 0.0
2014-Apr-14 23:34N 44°18' E 008°29'0 0.0
2014-Apr-14 22:34N 44°18' E 008°29'0 0.0
2014-Apr-14 18:34N 44°18' E 008°29'0 0.0
2014-Apr-14 10:34N 44°18' E 008°29'0 0.0
2014-Apr-14 08:34N 44°18' E 008°29'0 0.0
2014-Apr-14 07:33N 44°18' E 008°29'0 0.0
2014-Apr-13 20:20N 44°18' E 008°29'0 0.0
2014-Apr-13 19:33N 44°18' E 008°29'0 0.0
2014-Apr-13 18:17N 44°18' E 008°29'0 0.0
2014-Apr-13 16:05N 44°18' E 008°29'0 0.0
2014-Apr-13 15:33N 44°18' E 008°29'0 0.0
2014-Apr-13 11:33N 44°18' E 008°29'0 0.0
2014-Apr-13 08:06N 44°18' E 008°29'0 0.0
2014-Apr-13 07:30N 44°18' E 008°29'0 0.0
2014-Apr-13 04:06N 44°18' E 008°29'0 0.0
2014-Apr-13 03:33N 44°18' E 008°29'0 0.0
2014-Apr-13 02:30N 44°18' E 008°29'0 0.0
2014-Apr-13 01:33N 44°18' E 008°29'0 0.0
2014-Apr-13 00:31N 44°18' E 008°29'0 0.0
2014-Apr-12 23:33N 44°18' E 008°29'0 0.0
2014-Apr-12 22:19N 44°18' E 008°29'0 0.0
2014-Apr-12 20:05N 44°18' E 008°29'0 0.0
2014-Apr-12 19:33N 44°18' E 008°29'1 0.3
2014-Apr-12 17:28N 44°19' E 008°30'1 0.4
2014-Apr-12 16:04N 44°18' E 008°29'0 0.0
2014-Apr-12 15:33N 44°18' E 008°29'0 0.1
2014-Apr-12 11:33N 44°19' E 008°30'3 3.1
2014-Apr-12 10:25N 44°16' E 008°27'3 1.5
2014-Apr-12 08:21N 44°18' E 008°29'0 0.0
2014-Apr-12 07:22N 44°18' E 008°29'1 0.3
2014-Apr-12 04:29N 44°19' E 008°30'1 0.8
2014-Apr-12 03:33N 44°18' E 008°29'0 0.0
2014-Apr-12 02:33N 44°18' E 008°29'0 0.0
2014-Apr-12 01:33N 44°18' E 008°29'0 0.0
2014-Apr-12 00:29N 44°18' E 008°29'0 0.0
2014-Apr-11 23:33N 44°18' E 008°29'0 0.0
2014-Apr-11 20:07N 44°18' E 008°29'0 0.0
2014-Apr-11 19:32N 44°18' E 008°29'0 0.0
2014-Apr-11 16:12N 44°18' E 008°29'0 0.0
2014-Apr-11 15:32N 44°18' E 008°29'0 0.3
2014-Apr-11 14:19N 44°19' E 008°30'1 0.8
2014-Apr-11 13:14N 44°18' E 008°29'1 0.3
2014-Apr-11 11:33N 44°18' E 008°29'0 0.0
2014-Apr-11 08:08N 44°18' E 008°29'0 0.0
2014-Apr-11 07:27N 44°18' E 008°29'0 0.0
2014-Apr-11 04:17N 44°18' E 008°29'0 0.0
2014-Apr-11 03:33N 44°18' E 008°29'0 0.0
2014-Apr-11 02:33N 44°18' E 008°29'0 0.0
2014-Apr-11 01:33N 44°18' E 008°29'0 0.0
2014-Apr-11 00:33N 44°18' E 008°29'0 0.0
2014-Apr-10 23:33N 44°18' E 008°29'0 0.0
2014-Apr-10 22:20N 44°18' E 008°29'0 0.0
2014-Apr-10 20:04N 44°18' E 008°29'0 0.0
2014-Apr-10 19:33N 44°18' E 008°29'0 0.0
2014-Apr-10 16:04N 44°18' E 008°29'0 0.0
2014-Apr-10 15:33N 44°18' E 008°29'0 0.1
2014-Apr-10 12:28N 44°19' E 008°30'3 3.6
2014-Apr-10 11:33N 44°16' E 008°27'  

Dump ship's entire track history

sailing weather and tide predictions

Capo Vado — IPWV — position and weather